首页
METAR-TAF:

METAR-TAF

机场 :

密德蘭, 密歇根州, 美国

纬度: 43-39-46N, 经度: 084-15-41W, 海拔: 194米

当前天气观测

该预报发布于22分钟前的19:16 UTC
风速13节,风向西
温度 -4°C
湿度 46%
气压 1032 hPa
能見度: 16.1公里
散云层高于4500英尺

METAR: KIKW 191916Z AUTO 27013KT 10SM SCT045 M04/M14 A3047 RMK AO2 T10361137

时间: 14:38 (19:38 UTC)


TAF: 丢失

超过4000个机场的气象观测和天气预报(METAR&TAF报告)。

可查询的气象台以黄色和红色小点在地图上表示。

将鼠标移到小点上方,可查看气象台名称。

然后点击查看天气观测和预报。

如需切换地图:点击带黑十字的绿色按钮放大地图;点击带横线的绿色按钮缩小地图;或者点击绿色箭头查看邻近地区的地图。


METAR-TAF: